Terminal Aerodrome Forecast
Issued by NWS

Home | Current Version | Previous Version | Graphics & Text | Print | Product List | Glossary Off
Versions: 1 2 3 4 5 6 7 8 9 10 11 12 13 14 15 16 17 18

244
FTUS43 KMPX 141139
TAFRWF
TAF
KRWF 141139Z 1412/1512 15015G22KT 3SM -SN SCT009 OVC020
      TEMPO 1412/1415 1 1/2SM -SN OVC009
     FM141500 17015G22KT 4SM -SN OVC020
     FM141800 17012KT P6SM OVC015
     FM150700 24006KT P6SM OVC012=

USA.gov is the U.S. government's official web portal to all federal, state and local government web resources and services.